sensor_id;sensor_type;location;lat;lon;timestamp;pressure;altitude;pressure_sealevel;temperature;humidity
60319;BME280;46163;52.306;5.634;2022-10-01T00:00:59;100121.22;;;18.21;59.39
60319;BME280;46163;52.306;5.634;2022-10-01T00:03:27;100113.41;;;18.19;59.41
60319;BME280;46163;52.306;5.634;2022-10-01T00:06:00;100112.09;;;18.17;59.44
60319;BME280;46163;52.306;5.634;2022-10-01T00:08:26;100105.09;;;18.16;59.35
60319;BME280;46163;52.306;5.634;2022-10-01T00:10:52;100095.94;;;18.17;59.48
60319;BME280;46163;52.306;5.634;2022-10-01T00:13:18;100077.59;;;18.14;59.38
60319;BME280;46163;52.306;5.634;2022-10-01T00:15:45;100053.63;;;18.02;59.44
60319;BME280;46163;52.306;5.634;2022-10-01T00:18:11;100060.91;;;18.12;59.44
60319;BME280;46163;52.306;5.634;2022-10-01T00:20:40;100051.22;;;18.11;59.65
60319;BME280;46163;52.306;5.634;2022-10-01T00:23:08;100052.28;;;18.10;59.23
60319;BME280;46163;52.306;5.634;2022-10-01T00:25:34;100045.28;;;18.08;59.40
60319;BME280;46163;52.306;5.634;2022-10-01T00:28:00;100045.56;;;18.07;59.33
60319;BME280;46163;52.306;5.634;2022-10-01T00:30:25;100020.78;;;18.05;59.48
60319;BME280;46163;52.306;5.634;2022-10-01T00:32:53;100019.97;;;18.04;59.22
60319;BME280;46163;52.306;5.634;2022-10-01T00:35:20;100004.91;;;18.03;59.58
60319;BME280;46163;52.306;5.634;2022-10-01T00:37:47;100017.03;;;18.01;59.52
60319;BME280;46163;52.306;5.634;2022-10-01T00:40:16;100013.53;;;18.00;59.37
60319;BME280;46163;52.306;5.634;2022-10-01T00:42:41;99994.69;;;18.00;59.53
60319;BME280;46163;52.306;5.634;2022-10-01T00:45:10;99992.78;;;18.01;59.35
60319;BME280;46163;52.306;5.634;2022-10-01T00:47:37;99979.59;;;17.99;59.53
60319;BME280;46163;52.306;5.634;2022-10-01T00:52:38;99978.50;;;17.95;59.39
60319;BME280;46163;52.306;5.634;2022-10-01T00:55:41;99950.78;;;17.95;59.52
60319;BME280;46163;52.306;5.634;2022-10-01T00:58:09;99933.84;;;17.94;59.31
60319;BME280;46163;52.306;5.634;2022-10-01T01:00:38;99918.75;;;17.93;59.56
60319;BME280;46163;52.306;5.634;2022-10-01T01:03:05;99917.16;;;17.92;59.30
60319;BME280;46163;52.306;5.634;2022-10-01T01:05:32;99926.31;;;17.91;59.33
60319;BME280;46163;52.306;5.634;2022-10-01T01:07:58;99933.81;;;17.89;59.46
60319;BME280;46163;52.306;5.634;2022-10-01T01:11:17;99949.97;;;17.89;59.52
60319;BME280;46163;52.306;5.634;2022-10-01T01:13:28;99929.53;;;17.88;59.36
60319;BME280;46163;52.306;5.634;2022-10-01T01:16:16;99936.78;;;17.88;59.27
60319;BME280;46163;52.306;5.634;2022-10-01T01:18:55;99927.91;;;17.87;59.48
60319;BME280;46163;52.306;5.634;2022-10-01T01:29:17;99912.59;;;17.83;59.42
60319;BME280;46163;52.306;5.634;2022-10-01T01:31:45;99912.59;;;17.83;59.64
60319;BME280;46163;52.306;5.634;2022-10-01T01:34:20;99934.41;;;17.81;59.67
60319;BME280;46163;52.306;5.634;2022-10-01T01:36:52;99956.19;;;17.79;59.71
60319;BME280;46163;52.306;5.634;2022-10-01T01:39:20;99960.22;;;17.77;59.40
60319;BME280;46163;52.306;5.634;2022-10-01T01:41:51;99947.28;;;17.79;59.42
60319;BME280;46163;52.306;5.634;2022-10-01T01:44:23;99934.91;;;17.78;59.43
60319;BME280;46163;52.306;5.634;2022-10-01T01:46:51;99931.16;;;17.79;59.67
60319;BME280;46163;52.306;5.634;2022-10-01T01:49:21;99934.13;;;17.77;59.37
60319;BME280;46163;52.306;5.634;2022-10-01T01:52:14;99926.31;;;17.76;59.44
60319;BME280;46163;52.306;5.634;2022-10-01T01:54:40;99907.22;;;17.72;59.53
60319;BME280;46163;52.306;5.634;2022-10-01T01:57:07;99894.31;;;17.74;59.21
60319;BME280;46163;52.306;5.634;2022-10-01T01:59:33;99876.53;;;17.73;59.55
60319;BME280;46163;52.306;5.634;2022-10-01T02:02:00;99870.34;;;17.73;59.48
60319;BME280;46163;52.306;5.634;2022-10-01T02:04:36;99868.72;;;17.72;59.56
60319;BME280;46163;52.306;5.634;2022-10-01T02:15:24;99875.44;;;17.69;59.45
60319;BME280;46163;52.306;5.634;2022-10-01T02:20:44;99857.13;;;17.66;59.44
60319;BME280;46163;52.306;5.634;2022-10-01T02:23:17;99859.03;;;17.66;59.54
60319;BME280;46163;52.306;5.634;2022-10-01T02:25:47;99849.34;;;17.65;59.74
60319;BME280;46163;52.306;5.634;2022-10-01T02:28:21;99850.44;;;17.64;59.78
60319;BME280;46163;52.306;5.634;2022-10-01T02:30:49;99847.97;;;17.62;59.38
60319;BME280;46163;52.306;5.634;2022-10-01T02:33:19;99844.75;;;17.60;59.52
60319;BME280;46163;52.306;5.634;2022-10-01T02:35:47;99849.88;;;17.62;59.57
60319;BME280;46163;52.306;5.634;2022-10-01T02:38:14;99837.25;;;17.57;59.54
60319;BME280;46163;52.306;5.634;2022-10-01T02:40:43;99850.94;;;17.61;59.70
60319;BME280;46163;52.306;5.634;2022-10-01T02:43:18;99840.47;;;17.59;59.58
60319;BME280;46163;52.306;5.634;2022-10-01T02:45:52;99831.31;;;17.60;59.39
60319;BME280;46163;52.306;5.634;2022-10-01T02:48:19;99840.47;;;17.59;59.55
60319;BME280;46163;52.306;5.634;2022-10-01T02:50:53;99834.28;;;17.59;59.51
60319;BME280;46163;52.306;5.634;2022-10-01T02:53:23;99829.16;;;17.57;59.72
60319;BME280;46163;52.306;5.634;2022-10-01T02:55:52;99840.75;;;17.58;59.62
60319;BME280;46163;52.306;5.634;2022-10-01T02:58:18;99834.81;;;17.56;59.59
60319;BME280;46163;52.306;5.634;2022-10-01T03:00:44;99824.59;;;17.52;59.66
60319;BME280;46163;52.306;5.634;2022-10-01T03:03:10;99835.63;;;17.56;59.62
60319;BME280;46163;52.306;5.634;2022-10-01T03:05:35;99833.19;;;17.55;59.55
60319;BME280;46163;52.306;5.634;2022-10-01T03:08:00;99817.88;;;17.55;59.69
60319;BME280;46163;52.306;5.634;2022-10-01T03:10:26;99818.69;;;17.50;59.50
60319;BME280;46163;52.306;5.634;2022-10-01T03:12:51;99820.81;;;17.53;59.58
60319;BME280;46163;52.306;5.634;2022-10-01T03:15:18;99815.44;;;17.53;59.55
60319;BME280;46163;52.306;5.634;2022-10-01T03:17:44;99813.56;;;17.54;59.76
60319;BME280;46163;52.306;5.634;2022-10-01T03:20:10;99808.44;;;17.52;59.63
60319;BME280;46163;52.306;5.634;2022-10-01T03:22:36;99805.75;;;17.52;59.54
60319;BME280;46163;52.306;5.634;2022-10-01T03:25:02;99809.53;;;17.51;59.58
60319;BME280;46163;52.306;5.634;2022-10-01T03:27:30;99802.53;;;17.50;59.57
60319;BME280;46163;52.306;5.634;2022-10-01T03:29:55;99800.66;;;17.51;59.68
60319;BME280;46163;52.306;5.634;2022-10-01T03:32:21;99797.72;;;17.47;59.54
60319;BME280;46163;52.306;5.634;2022-10-01T03:34:47;99795.56;;;17.49;59.67
60319;BME280;46163;52.306;5.634;2022-10-01T03:37:13;99792.88;;;17.49;59.46
60319;BME280;46163;52.306;5.634;2022-10-01T03:39:39;99794.22;;;17.47;59.58
60319;BME280;46163;52.306;5.634;2022-10-01T03:42:05;99793.94;;;17.48;59.66
60319;BME280;46163;52.306;5.634;2022-10-01T03:44:31;99799.31;;;17.48;59.76
60319;BME280;46163;52.306;5.634;2022-10-01T03:46:57;99794.22;;;17.47;59.62
60319;BME280;46163;52.306;5.634;2022-10-01T03:49:23;99792.34;;;17.47;59.58
60319;BME280;46163;52.306;5.634;2022-10-01T03:51:48;99788.84;;;17.47;59.70
60319;BME280;46163;52.306;5.634;2022-10-01T03:54:16;99800.66;;;17.46;59.59
60319;BME280;46163;52.306;5.634;2022-10-01T03:56:42;99801.72;;;17.45;60.00
60319;BME280;46163;52.306;5.634;2022-10-01T03:59:09;99797.72;;;17.47;59.79
60319;BME280;46163;52.306;5.634;2022-10-01T04:01:35;99778.06;;;17.42;59.86
60319;BME280;46163;52.306;5.634;2022-10-01T04:04:01;99795.00;;;17.52;59.63
60319;BME280;46163;52.306;5.634;2022-10-01T04:06:29;99798.22;;;17.55;59.58
60319;BME280;46163;52.306;5.634;2022-10-01T04:08:55;99794.19;;;17.57;59.48
60319;BME280;46163;52.306;5.634;2022-10-01T04:11:20;99785.28;;;17.62;59.45
60319;BME280;46163;52.306;5.634;2022-10-01T04:13:46;99785.31;;;17.67;59.55
60319;BME280;46163;52.306;5.634;2022-10-01T04:16:12;99794.44;;;17.71;59.43
60319;BME280;46163;52.306;5.634;2022-10-01T04:18:38;99795.81;;;17.73;59.28
60319;BME280;46163;52.306;5.634;2022-10-01T04:21:03;99793.13;;;17.73;59.18
60319;BME280;46163;52.306;5.634;2022-10-01T04:23:30;99799.00;;;17.80;59.20
60319;BME280;46163;52.306;5.634;2022-10-01T04:26:00;99760.56;;;17.65;59.08
60319;BME280;46163;52.306;5.634;2022-10-01T04:28:27;99800.88;;;17.90;58.89
60319;BME280;46163;52.306;5.634;2022-10-01T04:30:53;99805.19;;;17.91;58.89
60319;BME280;46163;52.306;5.634;2022-10-01T04:33:38;99820.50;;;18.01;59.01
60319;BME280;46163;52.306;5.634;2022-10-01T04:36:04;99820.75;;;18.04;58.67
60319;BME280;46163;52.306;5.634;2022-10-01T04:38:29;99833.41;;;18.09;58.60
60319;BME280;46163;52.306;5.634;2022-10-01T04:40:55;99850.31;;;18.15;58.27
60319;BME280;46163;52.306;5.634;2022-10-01T04:43:21;99836.59;;;18.16;58.16
60319;BME280;46163;52.306;5.634;2022-10-01T04:45:46;99835.47;;;18.22;58.01
60319;BME280;46163;52.306;5.634;2022-10-01T04:48:12;99841.94;;;18.26;58.16
60319;BME280;46163;52.306;5.634;2022-10-01T04:50:37;99833.63;;;18.18;58.17
60319;BME280;46163;52.306;5.634;2022-10-01T04:53:03;99836.28;;;18.23;58.02
60319;BME280;46163;52.306;5.634;2022-10-01T04:55:29;99859.97;;;18.36;57.77
60319;BME280;46163;52.306;5.634;2022-10-01T04:57:54;99863.16;;;18.38;57.64
60319;BME280;46163;52.306;5.634;2022-10-01T05:00:21;99862.09;;;18.39;57.66
60319;BME280;46163;52.306;5.634;2022-10-01T05:02:49;99854.84;;;18.29;57.61
60319;BME280;46163;52.306;5.634;2022-10-01T05:05:16;99875.28;;;18.41;57.71
60319;BME280;46163;52.306;5.634;2022-10-01T05:07:42;99880.41;;;18.42;57.66
60319;BME280;46163;52.306;5.634;2022-10-01T05:10:13;99886.31;;;18.44;57.68
60319;BME280;46163;52.306;5.634;2022-10-01T05:12:39;99878.25;;;18.44;57.59
60319;BME280;46163;52.306;5.634;2022-10-01T05:15:05;99872.56;;;18.46;57.50
60319;BME280;46163;52.306;5.634;2022-10-01T05:17:31;99877.69;;;18.47;57.46
60319;BME280;46163;52.306;5.634;2022-10-01T05:19:59;99880.09;;;18.49;57.50
60319;BME280;46163;52.306;5.634;2022-10-01T05:22:25;99885.47;;;18.49;57.56
60319;BME280;46163;52.306;5.634;2022-10-01T05:24:51;99888.44;;;18.52;57.32
60319;BME280;46163;52.306;5.634;2022-10-01T05:27:17;99902.44;;;18.54;57.39
60319;BME280;46163;52.306;5.634;2022-10-01T05:29:43;99893.78;;;18.57;57.42
60319;BME280;46163;52.306;5.634;2022-10-01T05:32:10;99868.00;;;18.41;57.32
60319;BME280;46163;52.306;5.634;2022-10-01T05:34:37;99888.44;;;18.52;57.12
60319;BME280;46163;52.306;5.634;2022-10-01T05:37:03;99906.47;;;18.62;57.12
60319;BME280;46163;52.306;5.634;2022-10-01T05:39:29;99905.09;;;18.64;57.18
60319;BME280;46163;52.306;5.634;2022-10-01T05:41:56;99911.03;;;18.67;57.13
60319;BME280;46163;52.306;5.634;2022-10-01T05:44:22;99913.47;;;18.68;57.17
60319;BME280;46163;52.306;5.634;2022-10-01T05:46:48;99914.00;;;18.70;57.02
60319;BME280;46163;52.306;5.634;2022-10-01T05:49:15;99912.91;;;18.66;56.93
60319;BME280;46163;52.306;5.634;2022-10-01T05:51:42;99919.09;;;18.72;56.99
60319;BME280;46163;52.306;5.634;2022-10-01T05:54:10;99925.59;;;18.71;56.91
60319;BME280;46163;52.306;5.634;2022-10-01T05:56:37;99922.88;;;18.71;56.89
60319;BME280;46163;52.306;5.634;2022-10-01T05:59:03;99935.81;;;18.74;56.71
60319;BME280;46163;52.306;5.634;2022-10-01T06:01:29;99933.91;;;18.74;56.70
60319;BME280;46163;52.306;5.634;2022-10-01T06:03:56;99931.78;;;18.71;56.94
60319;BME280;46163;52.306;5.634;2022-10-01T06:06:24;99940.09;;;18.75;56.85
60319;BME280;46163;52.306;5.634;2022-10-01T06:08:50;99944.69;;;18.74;56.99
60319;BME280;46163;52.306;5.634;2022-10-01T06:11:15;99942.81;;;18.75;56.88
60319;BME280;46163;52.306;5.634;2022-10-01T06:13:42;99952.25;;;18.72;56.81
60319;BME280;46163;52.306;5.634;2022-10-01T06:16:11;99944.44;;;18.71;56.60
60319;BME280;46163;52.306;5.634;2022-10-01T06:18:40;99951.97;;;18.74;56.93
60319;BME280;46163;52.306;5.634;2022-10-01T06:21:07;99953.06;;;18.73;56.91
60319;BME280;46163;52.306;5.634;2022-10-01T06:23:33;99954.16;;;18.72;56.94
60319;BME280;46163;52.306;5.634;2022-10-01T06:26:00;99956.84;;;18.72;56.98
60319;BME280;46163;52.306;5.634;2022-10-01T06:28:26;99958.72;;;18.71;57.08
60319;BME280;46163;52.306;5.634;2022-10-01T06:30:52;99954.94;;;18.72;57.05
60319;BME280;46163;52.306;5.634;2022-10-01T06:33:18;99952.81;;;18.69;57.12
60319;BME280;46163;52.306;5.634;2022-10-01T06:35:51;99967.34;;;18.73;57.08
60319;BME280;46163;52.306;5.634;2022-10-01T06:38:18;99967.34;;;18.73;57.05
60319;BME280;46163;52.306;5.634;2022-10-01T06:40:50;99976.22;;;18.74;57.26
60319;BME280;46163;52.306;5.634;2022-10-01T06:43:16;99982.94;;;18.76;57.13
60319;BME280;46163;52.306;5.634;2022-10-01T06:45:41;99969.47;;;18.76;57.14
60319;BME280;46163;52.306;5.634;2022-10-01T06:48:11;99973.81;;;18.77;57.61
60319;BME280;46163;52.306;5.634;2022-10-01T06:50:39;99977.84;;;18.80;57.14
60319;BME280;46163;52.306;5.634;2022-10-01T06:53:05;99974.84;;;18.81;57.28
60319;BME280;46163;52.306;5.634;2022-10-01T06:55:32;99979.97;;;18.83;57.22
60319;BME280;46163;52.306;5.634;2022-10-01T06:58:06;99976.19;;;18.84;57.38
60319;BME280;46163;52.306;5.634;2022-10-01T07:00:35;99970.53;;;18.85;57.38
60319;BME280;46163;52.306;5.634;2022-10-01T07:03:07;99972.97;;;18.87;57.29
60319;BME280;46163;52.306;5.634;2022-10-01T07:05:35;99981.03;;;18.87;57.32
60319;BME280;46163;52.306;5.634;2022-10-01T07:08:01;99981.31;;;18.85;57.49
60319;BME280;46163;52.306;5.634;2022-10-01T07:10:27;99990.47;;;18.89;57.36
60319;BME280;46163;52.306;5.634;2022-10-01T07:12:54;99993.97;;;18.90;57.49
60319;BME280;46163;52.306;5.634;2022-10-01T07:15:21;100000.16;;;18.90;57.60
60319;BME280;46163;52.306;5.634;2022-10-01T07:17:50;99996.38;;;18.91;57.62
60319;BME280;46163;52.306;5.634;2022-10-01T07:20:18;99994.50;;;18.92;57.71
60319;BME280;46163;52.306;5.634;2022-10-01T07:22:45;100001.78;;;18.91;57.62
60319;BME280;46163;52.306;5.634;2022-10-01T07:25:12;100011.75;;;18.91;57.69
60319;BME280;46163;52.306;5.634;2022-10-01T07:27:38;100014.44;;;18.91;57.80
60319;BME280;46163;52.306;5.634;2022-10-01T07:30:05;100022.53;;;18.91;57.75
60319;BME280;46163;52.306;5.634;2022-10-01T07:32:33;100028.72;;;18.91;57.85
60319;BME280;46163;52.306;5.634;2022-10-01T07:35:00;100026.84;;;18.92;57.80
60319;BME280;46163;52.306;5.634;2022-10-01T07:37:25;100044.09;;;18.91;57.79
60319;BME280;46163;52.306;5.634;2022-10-01T07:39:51;100049.50;;;18.91;58.11
60319;BME280;46163;52.306;5.634;2022-10-01T07:42:17;100048.69;;;18.90;58.01
60319;BME280;46163;52.306;5.634;2022-10-01T07:44:43;100035.25;;;18.85;58.40
60319;BME280;46163;52.306;5.634;2022-10-01T07:47:09;100044.38;;;18.89;58.39
60319;BME280;46163;52.306;5.634;2022-10-01T07:49:34;100039.28;;;18.88;58.61
60319;BME280;46163;52.306;5.634;2022-10-01T07:52:00;100034.41;;;18.90;58.34
60319;BME280;46163;52.306;5.634;2022-10-01T07:54:26;100039.00;;;18.89;58.59
60319;BME280;46163;52.306;5.634;2022-10-01T07:56:53;100032.81;;;18.84;58.38
60319;BME280;46163;52.306;5.634;2022-10-01T07:59:23;100043.06;;;18.87;58.53
60319;BME280;46163;52.306;5.634;2022-10-01T08:01:50;100045.75;;;18.87;58.82
60319;BME280;46163;52.306;5.634;2022-10-01T08:04:17;100057.34;;;18.87;58.61
60319;BME280;46163;52.306;5.634;2022-10-01T08:07:01;100051.13;;;18.87;58.71
60319;BME280;46163;52.306;5.634;2022-10-01T08:09:26;100058.44;;;18.86;58.67
60319;BME280;46163;52.306;5.634;2022-10-01T08:11:52;100062.44;;;18.89;58.85
60319;BME280;46163;52.306;5.634;2022-10-01T08:14:18;100060.84;;;18.88;58.90
60319;BME280;46163;52.306;5.634;2022-10-01T08:16:44;100058.44;;;18.86;58.81
60319;BME280;46163;52.306;5.634;2022-10-01T08:19:11;100060.03;;;18.87;58.82
60319;BME280;46163;52.306;5.634;2022-10-01T08:21:37;100053.56;;;18.88;58.84
60319;BME280;46163;52.306;5.634;2022-10-01T08:24:04;100049.78;;;18.84;58.98
60319;BME280;46163;52.306;5.634;2022-10-01T08:26:30;100073.22;;;18.89;58.88
60319;BME280;46163;52.306;5.634;2022-10-01T08:28:56;100079.19;;;18.86;58.91
60319;BME280;46163;52.306;5.634;2022-10-01T08:31:22;100082.94;;;18.90;58.60
60319;BME280;46163;52.306;5.634;2022-10-01T08:33:50;100086.44;;;18.90;58.83
60319;BME280;46163;52.306;5.634;2022-10-01T08:36:16;100085.63;;;18.90;58.93
60319;BME280;46163;52.306;5.634;2022-10-01T08:38:46;100090.50;;;18.88;58.79
60319;BME280;46163;52.306;5.634;2022-10-01T08:41:31;100090.78;;;18.86;58.74
60319;BME280;46163;52.306;5.634;2022-10-01T08:44:02;100101.53;;;18.91;58.71
60319;BME280;46163;52.306;5.634;2022-10-01T08:46:33;100099.91;;;18.90;58.76
60319;BME280;46163;52.306;5.634;2022-10-01T08:49:15;100102.59;;;18.90;58.68
60319;BME280;46163;52.306;5.634;2022-10-01T08:51:51;100107.19;;;18.90;58.88
60319;BME280;46163;52.306;5.634;2022-10-01T08:57:05;100115.53;;;18.93;58.70
60319;BME280;46163;52.306;5.634;2022-10-01T09:04:40;100131.47;;;18.95;58.63
60319;BME280;46163;52.306;5.634;2022-10-01T09:07:26;100126.88;;;18.96;58.49
60319;BME280;46163;52.306;5.634;2022-10-01T09:10:07;100116.91;;;18.96;58.29
60319;BME280;46163;52.306;5.634;2022-10-01T09:21:24;100131.44;;;19.00;58.33
60319;BME280;46163;52.306;5.634;2022-10-01T09:26:20;100140.63;;;18.99;58.30
60319;BME280;46163;52.306;5.634;2022-10-01T09:28:48;100139.53;;;19.00;58.36
60319;BME280;46163;52.306;5.634;2022-10-01T09:31:23;100137.63;;;19.01;58.40
60319;BME280;46163;52.306;5.634;2022-10-01T09:33:57;100140.06;;;19.02;58.14
60319;BME280;46163;52.306;5.634;2022-10-01T09:37:04;100144.13;;;19.05;58.27
60319;BME280;46163;52.306;5.634;2022-10-01T09:39:45;100150.03;;;19.07;58.29
60319;BME280;46163;52.306;5.634;2022-10-01T09:42:13;100145.16;;;19.09;58.24
60319;BME280;46163;52.306;5.634;2022-10-01T09:44:39;100141.38;;;19.10;58.24
60319;BME280;46163;52.306;5.634;2022-10-01T09:47:18;100145.69;;;19.11;58.21
60319;BME280;46163;52.306;5.634;2022-10-01T09:49:44;100152.72;;;19.12;58.11
60319;BME280;46163;52.306;5.634;2022-10-01T09:52:24;100152.47;;;19.13;58.03
60319;BME280;46163;52.306;5.634;2022-10-01T09:54:57;100157.31;;;19.11;58.14
60319;BME280;46163;52.306;5.634;2022-10-01T09:57:32;100159.19;;;19.11;58.23
60319;BME280;46163;52.306;5.634;2022-10-01T10:00:06;100152.44;;;19.08;58.45
60319;BME280;46163;52.306;5.634;2022-10-01T10:02:49;100165.94;;;19.08;58.36
60319;BME280;46163;52.306;5.634;2022-10-01T10:05:21;100176.19;;;19.06;58.32
60319;BME280;46163;52.306;5.634;2022-10-01T10:07:59;100173.78;;;19.05;58.48
60319;BME280;46163;52.306;5.634;2022-10-01T10:10:31;100169.72;;;19.02;58.51
60319;BME280;46163;52.306;5.634;2022-10-01T10:13:24;100187.53;;;19.03;58.42
60319;BME280;46163;52.306;5.634;2022-10-01T10:15:53;100187.53;;;19.03;58.29
60319;BME280;46163;52.306;5.634;2022-10-01T10:18:29;100190.22;;;19.08;58.25
60319;BME280;46163;52.306;5.634;2022-10-01T10:20:57;100198.59;;;19.12;57.99
60319;BME280;46163;52.306;5.634;2022-10-01T10:23:24;100189.94;;;19.15;58.21
60319;BME280;46163;52.306;5.634;2022-10-01T10:25:55;100193.44;;;19.20;58.00
60319;BME280;46163;52.306;5.634;2022-10-01T10:28:22;100209.06;;;19.24;58.14
60319;BME280;46163;52.306;5.634;2022-10-01T10:30:51;100210.41;;;19.26;58.14
60319;BME280;46163;52.306;5.634;2022-10-01T10:33:19;100212.28;;;19.26;58.14
60319;BME280;46163;52.306;5.634;2022-10-01T10:35:55;100210.94;;;19.28;58.22
60319;BME280;46163;52.306;5.634;2022-10-01T10:38:24;100225.25;;;19.29;58.23
60319;BME280;46163;52.306;5.634;2022-10-01T10:40:52;100216.09;;;19.30;58.25
60319;BME280;46163;52.306;5.634;2022-10-01T10:43:23;100232.78;;;19.32;58.30
60319;BME280;46163;52.306;5.634;2022-10-01T10:45:51;100240.09;;;19.31;58.29
60319;BME280;46163;52.306;5.634;2022-10-01T10:48:22;100233.88;;;19.31;58.46
60319;BME280;46163;52.306;5.634;2022-10-01T10:50:49;100243.88;;;19.30;58.27
60319;BME280;46163;52.306;5.634;2022-10-01T10:53:25;100239.00;;;19.32;58.34
60319;BME280;46163;52.306;5.634;2022-10-01T10:56:02;100237.09;;;19.28;58.34
60319;BME280;46163;52.306;5.634;2022-10-01T10:58:30;100256.00;;;19.33;58.29
60319;BME280;46163;52.306;5.634;2022-10-01T11:01:04;100267.31;;;19.35;58.40
60319;BME280;46163;52.306;5.634;2022-10-01T11:03:35;100256.81;;;19.33;58.39
60319;BME280;46163;52.306;5.634;2022-10-01T11:06:08;100274.06;;;19.32;58.39
60319;BME280;46163;52.306;5.634;2022-10-01T11:08:36;100273.53;;;19.25;58.32
60319;BME280;46163;52.306;5.634;2022-10-01T11:11:10;100285.94;;;19.31;58.45
60319;BME280;46163;52.306;5.634;2022-10-01T11:16:53;100297.53;;;19.27;58.63
60319;BME280;46163;52.306;5.634;2022-10-01T11:20:01;100298.34;;;19.27;58.86
60319;BME280;46163;52.306;5.634;2022-10-01T11:44:23;100343.41;;;19.16;58.96
60319;BME280;46163;52.306;5.634;2022-10-01T11:46:58;100342.59;;;19.16;58.99
60319;BME280;46163;52.306;5.634;2022-10-01T11:57:59;100356.91;;;19.11;59.15
60319;BME280;46163;52.306;5.634;2022-10-01T12:01:04;100364.16;;;19.11;59.23
60319;BME280;46163;52.306;5.634;2022-10-01T12:03:36;100365.53;;;19.03;59.20
60319;BME280;46163;52.306;5.634;2022-10-01T12:06:07;100374.41;;;19.09;59.19
60319;BME280;46163;52.306;5.634;2022-10-01T12:08:36;100383.59;;;19.08;59.10
60319;BME280;46163;52.306;5.634;2022-10-01T12:13:47;100388.16;;;19.07;59.16
60319;BME280;46163;52.306;5.634;2022-10-01T12:16:38;100386.03;;;19.04;59.21
60319;BME280;46163;52.306;5.634;2022-10-01T12:19:17;100401.38;;;19.04;59.20
60319;BME280;46163;52.306;5.634;2022-10-01T12:22:02;100406.22;;;19.02;59.34
60319;BME280;46163;52.306;5.634;2022-10-01T12:24:38;100398.94;;;19.02;59.51
60319;BME280;46163;52.306;5.634;2022-10-01T12:29:58;100406.50;;;19.05;59.55
60319;BME280;46163;52.306;5.634;2022-10-01T12:32:37;100408.13;;;19.06;59.27
60319;BME280;46163;52.306;5.634;2022-10-01T12:38:17;100419.47;;;19.03;59.31
60319;BME280;46163;52.306;5.634;2022-10-01T12:57:26;100438.06;;;19.05;59.19
60319;BME280;46163;52.306;5.634;2022-10-01T13:05:22;100462.59;;;19.08;59.28
60319;BME280;46163;52.306;5.634;2022-10-01T13:15:42;100465.06;;;19.25;59.30
60319;BME280;46163;52.306;5.634;2022-10-01T13:20:58;100475.31;;;19.28;59.15
60319;BME280;46163;52.306;5.634;2022-10-01T13:31:57;100496.38;;;19.21;59.15
60319;BME280;46163;52.306;5.634;2022-10-01T13:34:37;100505.00;;;19.23;59.06
60319;BME280;46163;52.306;5.634;2022-10-01T13:37:17;100501.19;;;19.19;58.99
60319;BME280;46163;52.306;5.634;2022-10-01T13:39:46;100509.03;;;19.15;59.25
60319;BME280;46163;52.306;5.634;2022-10-01T13:42:19;100498.78;;;19.12;58.95
60319;BME280;46163;52.306;5.634;2022-10-01T13:44:58;100508.50;;;19.24;59.07
60319;BME280;46163;52.306;5.634;2022-10-01T13:47:25;100524.16;;;19.22;59.02
60319;BME280;46163;52.306;5.634;2022-10-01T13:49:57;100515.78;;;19.18;59.01
60319;BME280;46163;52.306;5.634;2022-10-01T13:52:23;100515.78;;;19.13;59.03
60319;BME280;46163;52.306;5.634;2022-10-01T13:54:52;100524.66;;;19.13;59.19
60319;BME280;46163;52.306;5.634;2022-10-01T13:57:38;100540.31;;;19.16;59.11
60319;BME280;46163;52.306;5.634;2022-10-01T14:00:20;100538.69;;;19.15;59.12
60319;BME280;46163;52.306;5.634;2022-10-01T14:03:21;100550.56;;;19.14;59.24
60319;BME280;46163;52.306;5.634;2022-10-01T14:05:56;100546.25;;;19.13;59.07
60319;BME280;46163;52.306;5.634;2022-10-01T14:08:41;100554.63;;;19.12;59.29
60319;BME280;46163;52.306;5.634;2022-10-01T14:11:13;100560.25;;;19.10;59.16
60319;BME280;46163;52.306;5.634;2022-10-01T14:14:07;100564.84;;;19.10;59.21
60319;BME280;46163;52.306;5.634;2022-10-01T14:16:53;100565.63;;;19.10;59.08
60319;BME280;46163;52.306;5.634;2022-10-01T14:19:21;100560.50;;;19.09;59.27
60319;BME280;46163;52.306;5.634;2022-10-01T14:25:08;100579.66;;;19.07;59.17
60319;BME280;46163;52.306;5.634;2022-10-01T14:30:50;100588.03;;;19.06;59.17
60319;BME280;46163;52.306;5.634;2022-10-01T14:33:45;100596.38;;;19.04;58.90
60319;BME280;46163;52.306;5.634;2022-10-01T14:36:28;100597.47;;;19.03;59.40
60319;BME280;46163;52.306;5.634;2022-10-01T14:39:14;100600.97;;;19.04;59.51
60319;BME280;46163;52.306;5.634;2022-10-01T14:41:40;100600.69;;;19.05;59.51
60319;BME280;46163;52.306;5.634;2022-10-01T14:44:42;100604.75;;;19.03;59.40
60319;BME280;46163;52.306;5.634;2022-10-01T14:47:22;100612.56;;;19.09;59.56
60319;BME280;46163;52.306;5.634;2022-10-01T14:49:49;100609.91;;;19.14;59.37
60319;BME280;46163;52.306;5.634;2022-10-01T14:52:22;100614.22;;;19.15;59.32
60319;BME280;46163;52.306;5.634;2022-10-01T14:54:51;100609.38;;;19.17;59.34
60319;BME280;46163;52.306;5.634;2022-10-01T14:57:38;100609.41;;;19.23;59.14
60319;BME280;46163;52.306;5.634;2022-10-01T15:00:07;100616.16;;;19.25;59.08
60319;BME280;46163;52.306;5.634;2022-10-01T15:02:48;100622.09;;;19.27;59.09
60319;BME280;46163;52.306;5.634;2022-10-01T15:05:26;100621.84;;;19.29;58.86
60319;BME280;46163;52.306;5.634;2022-10-01T15:07:53;100612.66;;;19.25;59.11
60319;BME280;46163;52.306;5.634;2022-10-01T15:10:20;100623.47;;;19.35;59.11
60319;BME280;46163;52.306;5.634;2022-10-01T15:12:49;100627.28;;;19.39;59.21
60319;BME280;46163;52.306;5.634;2022-10-01T15:15:20;100625.94;;;19.41;59.03
60319;BME280;46163;52.306;5.634;2022-10-01T15:17:46;100635.13;;;19.45;59.31
60319;BME280;46163;52.306;5.634;2022-10-01T15:20:14;100641.91;;;19.48;59.62
60319;BME280;46163;52.306;5.634;2022-10-01T15:22:40;100647.56;;;19.52;59.72